sensor_id;sensor_type;location;lat;lon;timestamp;temperature;humidity
39601;DHT22;25297;44.758;11.310;2022-12-07T00:00:40;9.60;97.30
39601;DHT22;25297;44.758;11.310;2022-12-07T00:03:06;9.60;97.30
39601;DHT22;25297;44.758;11.310;2022-12-07T00:05:31;9.60;97.30
39601;DHT22;25297;44.758;11.310;2022-12-07T00:07:57;9.60;97.30
39601;DHT22;25297;44.758;11.310;2022-12-07T00:10:23;9.60;97.20
39601;DHT22;25297;44.758;11.310;2022-12-07T00:12:48;9.60;97.20
39601;DHT22;25297;44.758;11.310;2022-12-07T00:15:15;9.60;97.00
39601;DHT22;25297;44.758;11.310;2022-12-07T00:17:41;9.60;97.00
39601;DHT22;25297;44.758;11.310;2022-12-07T00:20:07;9.60;97.20
39601;DHT22;25297;44.758;11.310;2022-12-07T00:22:32;9.60;97.20
39601;DHT22;25297;44.758;11.310;2022-12-07T00:24:58;9.60;97.10
39601;DHT22;25297;44.758;11.310;2022-12-07T00:27:24;9.60;97.10
39601;DHT22;25297;44.758;11.310;2022-12-07T00:29:49;9.60;97.10
39601;DHT22;25297;44.758;11.310;2022-12-07T00:32:15;9.60;97.10
39601;DHT22;25297;44.758;11.310;2022-12-07T00:34:40;9.60;97.20
39601;DHT22;25297;44.758;11.310;2022-12-07T00:37:06;9.60;97.40
39601;DHT22;25297;44.758;11.310;2022-12-07T00:39:31;9.60;97.60
39601;DHT22;25297;44.758;11.310;2022-12-07T00:41:57;9.70;97.70
39601;DHT22;25297;44.758;11.310;2022-12-07T00:44:23;9.70;98.00
39601;DHT22;25297;44.758;11.310;2022-12-07T00:46:48;9.70;98.30
39601;DHT22;25297;44.758;11.310;2022-12-07T00:49:14;9.70;98.60
39601;DHT22;25297;44.758;11.310;2022-12-07T00:51:40;9.70;98.90
39601;DHT22;25297;44.758;11.310;2022-12-07T00:54:05;9.70;99.10
39601;DHT22;25297;44.758;11.310;2022-12-07T00:56:31;9.70;99.30
39601;DHT22;25297;44.758;11.310;2022-12-07T00:59:01;9.70;99.60
39601;DHT22;25297;44.758;11.310;2022-12-07T01:01:33;9.70;99.70
39601;DHT22;25297;44.758;11.310;2022-12-07T01:03:59;9.70;99.80
39601;DHT22;25297;44.758;11.310;2022-12-07T01:06:27;9.80;99.80
39601;DHT22;25297;44.758;11.310;2022-12-07T01:08:53;9.70;99.90
39601;DHT22;25297;44.758;11.310;2022-12-07T01:11:21;9.70;99.90
39601;DHT22;25297;44.758;11.310;2022-12-07T01:13:50;9.70;99.90
39601;DHT22;25297;44.758;11.310;2022-12-07T01:16:16;9.80;99.90
39601;DHT22;25297;44.758;11.310;2022-12-07T01:18:46;9.70;99.90
39601;DHT22;25297;44.758;11.310;2022-12-07T01:21:15;9.70;99.90
39601;DHT22;25297;44.758;11.310;2022-12-07T01:23:41;9.80;99.90
39601;DHT22;25297;44.758;11.310;2022-12-07T01:26:10;9.80;99.90
39601;DHT22;25297;44.758;11.310;2022-12-07T01:28:36;9.80;99.90
39601;DHT22;25297;44.758;11.310;2022-12-07T01:31:07;9.80;99.90
39601;DHT22;25297;44.758;11.310;2022-12-07T01:33:36;9.80;99.90
39601;DHT22;25297;44.758;11.310;2022-12-07T01:36:15;9.80;99.90
39601;DHT22;25297;44.758;11.310;2022-12-07T01:38:42;9.70;99.90
39601;DHT22;25297;44.758;11.310;2022-12-07T01:41:08;9.70;99.90
39601;DHT22;25297;44.758;11.310;2022-12-07T01:43:34;9.70;99.90
39601;DHT22;25297;44.758;11.310;2022-12-07T01:46:02;9.70;99.90
39601;DHT22;25297;44.758;11.310;2022-12-07T01:48:38;9.80;99.90
39601;DHT22;25297;44.758;11.310;2022-12-07T01:51:09;9.70;99.90
39601;DHT22;25297;44.758;11.310;2022-12-07T01:53:38;9.70;99.90
39601;DHT22;25297;44.758;11.310;2022-12-07T01:56:05;9.70;99.90
39601;DHT22;25297;44.758;11.310;2022-12-07T01:58:33;9.70;99.90
39601;DHT22;25297;44.758;11.310;2022-12-07T02:01:00;9.70;99.90
39601;DHT22;25297;44.758;11.310;2022-12-07T02:03:31;9.80;99.90
39601;DHT22;25297;44.758;11.310;2022-12-07T02:06:00;9.70;99.90
39601;DHT22;25297;44.758;11.310;2022-12-07T02:08:26;9.70;99.90
39601;DHT22;25297;44.758;11.310;2022-12-07T02:10:51;9.70;99.90
39601;DHT22;25297;44.758;11.310;2022-12-07T02:13:27;9.70;99.90
39601;DHT22;25297;44.758;11.310;2022-12-07T02:16:13;9.70;99.90
39601;DHT22;25297;44.758;11.310;2022-12-07T02:26:43;9.70;99.90
39601;DHT22;25297;44.758;11.310;2022-12-07T02:29:13;9.80;99.90
39601;DHT22;25297;44.758;11.310;2022-12-07T02:31:46;9.80;99.90
39601;DHT22;25297;44.758;11.310;2022-12-07T02:34:58;9.80;99.90
39601;DHT22;25297;44.758;11.310;2022-12-07T02:43:06;9.80;99.90
39601;DHT22;25297;44.758;11.310;2022-12-07T02:45:36;9.80;99.90
39601;DHT22;25297;44.758;11.310;2022-12-07T02:48:04;9.80;99.90
39601;DHT22;25297;44.758;11.310;2022-12-07T02:50:30;9.80;99.90
39601;DHT22;25297;44.758;11.310;2022-12-07T02:52:56;9.80;99.90
39601;DHT22;25297;44.758;11.310;2022-12-07T02:55:31;9.80;99.90
39601;DHT22;25297;44.758;11.310;2022-12-07T02:58:04;9.80;99.90
39601;DHT22;25297;44.758;11.310;2022-12-07T03:00:38;9.80;99.90
39601;DHT22;25297;44.758;11.310;2022-12-07T03:03:10;9.70;99.90
39601;DHT22;25297;44.758;11.310;2022-12-07T03:05:47;9.80;99.90
39601;DHT22;25297;44.758;11.310;2022-12-07T03:11:00;9.80;99.90
39601;DHT22;25297;44.758;11.310;2022-12-07T03:13:50;9.80;99.90
39601;DHT22;25297;44.758;11.310;2022-12-07T03:16:35;9.80;99.90
39601;DHT22;25297;44.758;11.310;2022-12-07T03:19:36;9.80;99.90
39601;DHT22;25297;44.758;11.310;2022-12-07T03:22:04;9.80;99.90
39601;DHT22;25297;44.758;11.310;2022-12-07T03:24:35;9.80;99.90
39601;DHT22;25297;44.758;11.310;2022-12-07T03:27:09;9.80;99.90
39601;DHT22;25297;44.758;11.310;2022-12-07T03:29:44;9.80;99.90
39601;DHT22;25297;44.758;11.310;2022-12-07T03:32:16;9.80;99.90
39601;DHT22;25297;44.758;11.310;2022-12-07T03:34:56;9.80;99.90
39601;DHT22;25297;44.758;11.310;2022-12-07T03:37:29;9.80;99.90
39601;DHT22;25297;44.758;11.310;2022-12-07T03:40:13;9.80;99.90
39601;DHT22;25297;44.758;11.310;2022-12-07T03:42:42;9.80;99.90
39601;DHT22;25297;44.758;11.310;2022-12-07T03:45:08;9.80;99.90
39601;DHT22;25297;44.758;11.310;2022-12-07T03:47:42;9.80;99.90
39601;DHT22;25297;44.758;11.310;2022-12-07T03:50:36;9.80;99.90
39601;DHT22;25297;44.758;11.310;2022-12-07T03:53:24;9.80;99.90
39601;DHT22;25297;44.758;11.310;2022-12-07T03:55:54;9.80;99.90
39601;DHT22;25297;44.758;11.310;2022-12-07T03:58:21;9.90;99.90
39601;DHT22;25297;44.758;11.310;2022-12-07T04:00:48;9.90;99.90
39601;DHT22;25297;44.758;11.310;2022-12-07T04:03:14;9.90;99.90
39601;DHT22;25297;44.758;11.310;2022-12-07T04:05:40;9.90;99.90
39601;DHT22;25297;44.758;11.310;2022-12-07T04:08:06;9.90;99.90
39601;DHT22;25297;44.758;11.310;2022-12-07T04:10:32;9.90;99.90
39601;DHT22;25297;44.758;11.310;2022-12-07T04:12:58;9.90;99.80
39601;DHT22;25297;44.758;11.310;2022-12-07T04:15:23;9.90;99.60
39601;DHT22;25297;44.758;11.310;2022-12-07T04:17:49;9.90;99.40
39601;DHT22;25297;44.758;11.310;2022-12-07T04:20:14;9.90;99.20
39601;DHT22;25297;44.758;11.310;2022-12-07T04:22:40;9.90;99.20
39601;DHT22;25297;44.758;11.310;2022-12-07T04:25:06;9.90;99.00
39601;DHT22;25297;44.758;11.310;2022-12-07T04:27:32;9.90;99.00
39601;DHT22;25297;44.758;11.310;2022-12-07T04:29:57;9.80;98.90
39601;DHT22;25297;44.758;11.310;2022-12-07T04:32:23;9.80;98.90
39601;DHT22;25297;44.758;11.310;2022-12-07T04:34:49;9.80;98.80
39601;DHT22;25297;44.758;11.310;2022-12-07T04:37:15;9.80;98.90
39601;DHT22;25297;44.758;11.310;2022-12-07T04:39:41;9.90;98.70
39601;DHT22;25297;44.758;11.310;2022-12-07T04:42:09;9.80;98.50
39601;DHT22;25297;44.758;11.310;2022-12-07T04:44:34;9.80;98.60
39601;DHT22;25297;44.758;11.310;2022-12-07T04:47:00;9.90;98.70
39601;DHT22;25297;44.758;11.310;2022-12-07T04:49:26;9.80;98.60
39601;DHT22;25297;44.758;11.310;2022-12-07T04:51:52;9.80;98.70
39601;DHT22;25297;44.758;11.310;2022-12-07T04:54:17;9.80;98.60
39601;DHT22;25297;44.758;11.310;2022-12-07T04:56:43;9.80;98.60
39601;DHT22;25297;44.758;11.310;2022-12-07T04:59:10;9.80;98.50
39601;DHT22;25297;44.758;11.310;2022-12-07T05:01:36;9.80;98.60
39601;DHT22;25297;44.758;11.310;2022-12-07T05:04:02;9.80;98.50
39601;DHT22;25297;44.758;11.310;2022-12-07T05:06:27;9.80;98.60
39601;DHT22;25297;44.758;11.310;2022-12-07T05:08:53;9.80;98.60
39601;DHT22;25297;44.758;11.310;2022-12-07T05:11:19;9.80;98.60
39601;DHT22;25297;44.758;11.310;2022-12-07T05:16:36;9.80;98.60
39601;DHT22;25297;44.758;11.310;2022-12-07T05:19:02;9.80;98.50
39601;DHT22;25297;44.758;11.310;2022-12-07T05:21:27;9.80;98.30
39601;DHT22;25297;44.758;11.310;2022-12-07T05:23:53;9.70;98.40
39601;DHT22;25297;44.758;11.310;2022-12-07T05:26:19;9.70;98.40
39601;DHT22;25297;44.758;11.310;2022-12-07T05:28:44;9.70;98.40
39601;DHT22;25297;44.758;11.310;2022-12-07T05:31:10;9.70;98.40
39601;DHT22;25297;44.758;11.310;2022-12-07T05:33:36;9.70;98.50
39601;DHT22;25297;44.758;11.310;2022-12-07T05:36:01;9.70;98.50
39601;DHT22;25297;44.758;11.310;2022-12-07T05:38:31;9.70;98.50
39601;DHT22;25297;44.758;11.310;2022-12-07T05:41:01;9.70;98.20
39601;DHT22;25297;44.758;11.310;2022-12-07T05:43:27;9.70;98.30
39601;DHT22;25297;44.758;11.310;2022-12-07T05:45:52;9.70;98.50
39601;DHT22;25297;44.758;11.310;2022-12-07T05:48:18;9.60;98.40
39601;DHT22;25297;44.758;11.310;2022-12-07T05:50:44;9.70;98.50
39601;DHT22;25297;44.758;11.310;2022-12-07T05:53:12;9.60;98.50
39601;DHT22;25297;44.758;11.310;2022-12-07T05:55:38;9.60;98.40
39601;DHT22;25297;44.758;11.310;2022-12-07T05:58:03;9.60;98.50
39601;DHT22;25297;44.758;11.310;2022-12-07T06:00:48;9.60;98.50
39601;DHT22;25297;44.758;11.310;2022-12-07T06:03:13;9.60;98.50
39601;DHT22;25297;44.758;11.310;2022-12-07T06:05:39;9.60;98.50
39601;DHT22;25297;44.758;11.310;2022-12-07T06:08:04;9.60;98.50
39601;DHT22;25297;44.758;11.310;2022-12-07T06:10:30;9.60;98.60
39601;DHT22;25297;44.758;11.310;2022-12-07T06:12:56;9.60;98.70
39601;DHT22;25297;44.758;11.310;2022-12-07T06:15:22;9.60;98.70
39601;DHT22;25297;44.758;11.310;2022-12-07T06:17:48;9.60;98.80
39601;DHT22;25297;44.758;11.310;2022-12-07T06:20:14;9.60;98.80
39601;DHT22;25297;44.758;11.310;2022-12-07T06:22:40;9.60;98.80
39601;DHT22;25297;44.758;11.310;2022-12-07T06:25:05;9.60;98.80
39601;DHT22;25297;44.758;11.310;2022-12-07T06:27:32;9.60;99.10
39601;DHT22;25297;44.758;11.310;2022-12-07T06:29:58;9.60;98.80
39601;DHT22;25297;44.758;11.310;2022-12-07T06:32:24;9.70;98.80
39601;DHT22;25297;44.758;11.310;2022-12-07T06:34:50;9.70;98.80
39601;DHT22;25297;44.758;11.310;2022-12-07T06:37:16;9.70;98.60
39601;DHT22;25297;44.758;11.310;2022-12-07T06:39:42;9.70;98.50
39601;DHT22;25297;44.758;11.310;2022-12-07T06:42:07;9.70;98.50
39601;DHT22;25297;44.758;11.310;2022-12-07T06:44:33;9.70;98.60
39601;DHT22;25297;44.758;11.310;2022-12-07T06:46:59;9.70;98.60
39601;DHT22;25297;44.758;11.310;2022-12-07T06:49:24;9.70;98.70
39601;DHT22;25297;44.758;11.310;2022-12-07T06:51:50;9.70;98.60
39601;DHT22;25297;44.758;11.310;2022-12-07T06:54:16;9.80;98.50
39601;DHT22;25297;44.758;11.310;2022-12-07T06:56:42;9.70;98.40
39601;DHT22;25297;44.758;11.310;2022-12-07T06:59:08;9.80;98.50
39601;DHT22;25297;44.758;11.310;2022-12-07T07:01:35;9.80;98.50
39601;DHT22;25297;44.758;11.310;2022-12-07T07:04:02;9.80;98.40
39601;DHT22;25297;44.758;11.310;2022-12-07T07:06:27;9.80;98.40
39601;DHT22;25297;44.758;11.310;2022-12-07T07:08:53;9.80;98.40
39601;DHT22;25297;44.758;11.310;2022-12-07T07:11:19;9.80;98.50
39601;DHT22;25297;44.758;11.310;2022-12-07T07:13:45;9.80;98.50
39601;DHT22;25297;44.758;11.310;2022-12-07T07:16:12;9.80;98.40
39601;DHT22;25297;44.758;11.310;2022-12-07T07:18:37;9.80;98.40
39601;DHT22;25297;44.758;11.310;2022-12-07T07:21:04;9.80;98.30
39601;DHT22;25297;44.758;11.310;2022-12-07T07:23:29;9.80;98.40
39601;DHT22;25297;44.758;11.310;2022-12-07T07:25:55;9.80;98.40
39601;DHT22;25297;44.758;11.310;2022-12-07T07:28:22;9.80;98.30
39601;DHT22;25297;44.758;11.310;2022-12-07T07:30:48;9.80;98.30
39601;DHT22;25297;44.758;11.310;2022-12-07T07:33:13;9.80;98.20
39601;DHT22;25297;44.758;11.310;2022-12-07T07:35:39;9.80;98.10
39601;DHT22;25297;44.758;11.310;2022-12-07T07:38:05;9.80;98.10
39601;DHT22;25297;44.758;11.310;2022-12-07T07:40:31;9.80;98.10
39601;DHT22;25297;44.758;11.310;2022-12-07T07:42:57;9.80;98.20
39601;DHT22;25297;44.758;11.310;2022-12-07T07:45:24;9.80;98.10
39601;DHT22;25297;44.758;11.310;2022-12-07T07:47:50;9.80;98.10
39601;DHT22;25297;44.758;11.310;2022-12-07T07:50:17;9.80;98.00
39601;DHT22;25297;44.758;11.310;2022-12-07T07:52:43;9.80;98.00
39601;DHT22;25297;44.758;11.310;2022-12-07T07:55:09;9.80;98.10
39601;DHT22;25297;44.758;11.310;2022-12-07T07:57:36;9.80;98.10
39601;DHT22;25297;44.758;11.310;2022-12-07T08:00:05;9.80;98.20
39601;DHT22;25297;44.758;11.310;2022-12-07T08:02:32;9.80;98.20
39601;DHT22;25297;44.758;11.310;2022-12-07T08:04:57;9.80;98.20
39601;DHT22;25297;44.758;11.310;2022-12-07T08:07:23;9.80;98.20
39601;DHT22;25297;44.758;11.310;2022-12-07T08:09:49;9.80;98.30
39601;DHT22;25297;44.758;11.310;2022-12-07T08:12:14;9.80;98.30
39601;DHT22;25297;44.758;11.310;2022-12-07T08:14:40;9.80;98.20
39601;DHT22;25297;44.758;11.310;2022-12-07T08:17:06;9.80;98.10
39601;DHT22;25297;44.758;11.310;2022-12-07T08:19:32;9.80;98.20
39601;DHT22;25297;44.758;11.310;2022-12-07T08:21:58;9.80;98.20
39601;DHT22;25297;44.758;11.310;2022-12-07T08:24:24;9.80;98.20
39601;DHT22;25297;44.758;11.310;2022-12-07T08:26:50;9.80;98.20
39601;DHT22;25297;44.758;11.310;2022-12-07T08:29:16;9.80;98.20
39601;DHT22;25297;44.758;11.310;2022-12-07T08:31:42;9.80;98.30
39601;DHT22;25297;44.758;11.310;2022-12-07T08:34:10;9.80;98.40
39601;DHT22;25297;44.758;11.310;2022-12-07T08:36:36;9.80;98.30
39601;DHT22;25297;44.758;11.310;2022-12-07T08:39:02;9.80;98.50
39601;DHT22;25297;44.758;11.310;2022-12-07T08:41:28;9.80;98.50
39601;DHT22;25297;44.758;11.310;2022-12-07T08:43:53;9.80;98.40
39601;DHT22;25297;44.758;11.310;2022-12-07T08:46:23;9.80;98.40
39601;DHT22;25297;44.758;11.310;2022-12-07T08:48:57;9.80;98.50
39601;DHT22;25297;44.758;11.310;2022-12-07T08:51:24;9.80;98.60
39601;DHT22;25297;44.758;11.310;2022-12-07T08:53:51;9.90;98.80
39601;DHT22;25297;44.758;11.310;2022-12-07T08:56:18;9.90;98.90
39601;DHT22;25297;44.758;11.310;2022-12-07T08:58:44;9.90;98.90
39601;DHT22;25297;44.758;11.310;2022-12-07T09:01:10;9.90;98.60
39601;DHT22;25297;44.758;11.310;2022-12-07T09:03:35;9.90;98.60
39601;DHT22;25297;44.758;11.310;2022-12-07T09:06:02;9.90;98.80
39601;DHT22;25297;44.758;11.310;2022-12-07T09:08:34;9.90;98.80
39601;DHT22;25297;44.758;11.310;2022-12-07T09:11:01;9.90;98.70
39601;DHT22;25297;44.758;11.310;2022-12-07T09:13:27;9.90;98.70
39601;DHT22;25297;44.758;11.310;2022-12-07T09:15:53;9.90;98.80
39601;DHT22;25297;44.758;11.310;2022-12-07T09:18:18;9.90;98.80
39601;DHT22;25297;44.758;11.310;2022-12-07T09:20:44;10.00;98.90
39601;DHT22;25297;44.758;11.310;2022-12-07T09:23:09;10.00;98.80
39601;DHT22;25297;44.758;11.310;2022-12-07T09:25:35;10.00;98.90
39601;DHT22;25297;44.758;11.310;2022-12-07T09:28:01;10.10;98.90
39601;DHT22;25297;44.758;11.310;2022-12-07T09:30:27;10.10;98.90
39601;DHT22;25297;44.758;11.310;2022-12-07T09:32:54;10.10;99.00
39601;DHT22;25297;44.758;11.310;2022-12-07T09:35:20;10.10;99.00
39601;DHT22;25297;44.758;11.310;2022-12-07T09:37:46;10.10;99.10
39601;DHT22;25297;44.758;11.310;2022-12-07T09:40:13;10.20;99.00
39601;DHT22;25297;44.758;11.310;2022-12-07T09:42:44;10.20;98.80
39601;DHT22;25297;44.758;11.310;2022-12-07T09:45:26;10.20;98.60
39601;DHT22;25297;44.758;11.310;2022-12-07T09:47:52;10.20;98.40
39601;DHT22;25297;44.758;11.310;2022-12-07T09:50:26;10.20;98.50
39601;DHT22;25297;44.758;11.310;2022-12-07T09:52:53;10.20;98.30
39601;DHT22;25297;44.758;11.310;2022-12-07T09:55:29;10.20;98.20
39601;DHT22;25297;44.758;11.310;2022-12-07T09:57:55;10.20;98.30
39601;DHT22;25297;44.758;11.310;2022-12-07T10:00:23;10.10;98.20
39601;DHT22;25297;44.758;11.310;2022-12-07T10:02:56;10.20;98.30
39601;DHT22;25297;44.758;11.310;2022-12-07T10:05:47;10.20;98.40
39601;DHT22;25297;44.758;11.310;2022-12-07T10:08:14;10.20;98.50
39601;DHT22;25297;44.758;11.310;2022-12-07T10:10:41;10.20;98.70
39601;DHT22;25297;44.758;11.310;2022-12-07T10:13:12;10.20;98.80
39601;DHT22;25297;44.758;11.310;2022-12-07T10:15:57;10.30;98.80
39601;DHT22;25297;44.758;11.310;2022-12-07T10:18:38;10.30;98.50
39601;DHT22;25297;44.758;11.310;2022-12-07T10:23:37;10.30;98.50
39601;DHT22;25297;44.758;11.310;2022-12-07T10:28:55;10.40;98.70
39601;DHT22;25297;44.758;11.310;2022-12-07T10:31:22;10.40;98.30
39601;DHT22;25297;44.758;11.310;2022-12-07T10:34:00;10.40;98.30
39601;DHT22;25297;44.758;11.310;2022-12-07T10:36:44;10.40;98.30
39601;DHT22;25297;44.758;11.310;2022-12-07T10:39:14;10.50;98.20
39601;DHT22;25297;44.758;11.310;2022-12-07T10:42:00;10.50;98.20
39601;DHT22;25297;44.758;11.310;2022-12-07T10:44:28;10.50;98.20
39601;DHT22;25297;44.758;11.310;2022-12-07T10:47:19;10.50;98.10
39601;DHT22;25297;44.758;11.310;2022-12-07T11:09:44;10.50;97.50
39601;DHT22;25297;44.758;11.310;2022-12-07T11:12:58;10.50;97.70
39601;DHT22;25297;44.758;11.310;2022-12-07T11:15:48;10.50;97.60
39601;DHT22;25297;44.758;11.310;2022-12-07T11:21:47;10.60;97.50
39601;DHT22;25297;44.758;11.310;2022-12-07T11:24:19;10.60;97.50
39601;DHT22;25297;44.758;11.310;2022-12-07T11:34:57;10.60;97.60
39601;DHT22;25297;44.758;11.310;2022-12-07T11:37:23;10.60;97.60
39601;DHT22;25297;44.758;11.310;2022-12-07T11:39:54;10.70;97.40
39601;DHT22;25297;44.758;11.310;2022-12-07T11:42:27;10.70;97.30
39601;DHT22;25297;44.758;11.310;2022-12-07T11:45:16;10.70;97.20
39601;DHT22;25297;44.758;11.310;2022-12-07T11:47:54;10.70;97.10
39601;DHT22;25297;44.758;11.310;2022-12-07T11:50:35;10.60;96.90
39601;DHT22;25297;44.758;11.310;2022-12-07T12:06:38;10.70;96.90
39601;DHT22;25297;44.758;11.310;2022-12-07T12:09:34;10.70;96.80
39601;DHT22;25297;44.758;11.310;2022-12-07T12:20:32;10.70;97.00
39601;DHT22;25297;44.758;11.310;2022-12-07T12:28:24;10.70;96.50
39601;DHT22;25297;44.758;11.310;2022-12-07T12:33:38;10.70;96.30
39601;DHT22;25297;44.758;11.310;2022-12-07T12:46:47;10.80;96.40
39601;DHT22;25297;44.758;11.310;2022-12-07T12:52:01;10.80;96.70
39601;DHT22;25297;44.758;11.310;2022-12-07T12:57:32;10.90;96.60
39601;DHT22;25297;44.758;11.310;2022-12-07T13:02:29;10.90;96.20
39601;DHT22;25297;44.758;11.310;2022-12-07T13:12:59;11.00;95.90
39601;DHT22;25297;44.758;11.310;2022-12-07T13:15:35;11.00;95.80
39601;DHT22;25297;44.758;11.310;2022-12-07T13:26:17;10.90;95.80
39601;DHT22;25297;44.758;11.310;2022-12-07T13:29:15;10.90;95.70
39601;DHT22;25297;44.758;11.310;2022-12-07T13:31:52;11.00;95.90
39601;DHT22;25297;44.758;11.310;2022-12-07T13:34:38;11.00;96.10
39601;DHT22;25297;44.758;11.310;2022-12-07T13:37:25;11.00;96.20
39601;DHT22;25297;44.758;11.310;2022-12-07T13:39:55;11.00;96.20
39601;DHT22;25297;44.758;11.310;2022-12-07T13:42:30;11.00;96.30
39601;DHT22;25297;44.758;11.310;2022-12-07T13:44:57;11.00;96.30
39601;DHT22;25297;44.758;11.310;2022-12-07T13:47:31;11.00;96.10
39601;DHT22;25297;44.758;11.310;2022-12-07T13:50:01;11.00;96.10
39601;DHT22;25297;44.758;11.310;2022-12-07T13:52:29;11.10;96.10
39601;DHT22;25297;44.758;11.310;2022-12-07T13:54:56;11.10;96.10
39601;DHT22;25297;44.758;11.310;2022-12-07T13:57:24;11.10;96.10
39601;DHT22;25297;44.758;11.310;2022-12-07T13:59:51;11.10;96.10
39601;DHT22;25297;44.758;11.310;2022-12-07T14:02:21;11.10;96.40
39601;DHT22;25297;44.758;11.310;2022-12-07T14:04:49;11.10;96.50
39601;DHT22;25297;44.758;11.310;2022-12-07T14:07:25;11.10;96.50
39601;DHT22;25297;44.758;11.310;2022-12-07T14:10:30;11.20;96.50
39601;DHT22;25297;44.758;11.310;2022-12-07T14:12:57;11.20;96.20
39601;DHT22;25297;44.758;11.310;2022-12-07T14:15:32;11.30;96.00
39601;DHT22;25297;44.758;11.310;2022-12-07T14:17:59;11.30;95.80
39601;DHT22;25297;44.758;11.310;2022-12-07T14:20:34;11.30;95.50
39601;DHT22;25297;44.758;11.310;2022-12-07T14:23:00;11.30;95.40
39601;DHT22;25297;44.758;11.310;2022-12-07T14:25:48;11.30;95.30
39601;DHT22;25297;44.758;11.310;2022-12-07T14:28:27;11.30;95.50
39601;DHT22;25297;44.758;11.310;2022-12-07T14:30:53;11.30;95.60
39601;DHT22;25297;44.758;11.310;2022-12-07T14:33:19;11.30;95.40
39601;DHT22;25297;44.758;11.310;2022-12-07T14:35:46;11.30;95.40
39601;DHT22;25297;44.758;11.310;2022-12-07T14:38:11;11.30;95.20
39601;DHT22;25297;44.758;11.310;2022-12-07T14:40:38;11.20;95.10
39601;DHT22;25297;44.758;11.310;2022-12-07T14:43:12;11.20;95.10
39601;DHT22;25297;44.758;11.310;2022-12-07T14:45:39;11.20;94.90
39601;DHT22;25297;44.758;11.310;2022-12-07T14:48:12;11.20;94.80
39601;DHT22;25297;44.758;11.310;2022-12-07T14:50:44;11.20;94.80
39601;DHT22;25297;44.758;11.310;2022-12-07T14:53:17;11.20;94.70
39601;DHT22;25297;44.758;11.310;2022-12-07T14:55:43;11.10;94.70
39601;DHT22;25297;44.758;11.310;2022-12-07T14:58:17;11.10;94.70
39601;DHT22;25297;44.758;11.310;2022-12-07T15:00:43;11.00;94.60
39601;DHT22;25297;44.758;11.310;2022-12-07T15:03:09;11.00;94.60
39601;DHT22;25297;44.758;11.310;2022-12-07T15:05:35;11.00;94.60
39601;DHT22;25297;44.758;11.310;2022-12-07T15:08:01;11.00;94.70
39601;DHT22;25297;44.758;11.310;2022-12-07T15:10:31;10.90;94.70
39601;DHT22;25297;44.758;11.310;2022-12-07T15:13:01;10.90;94.70
39601;DHT22;25297;44.758;11.310;2022-12-07T15:15:47;10.90;94.60
39601;DHT22;25297;44.758;11.310;2022-12-07T15:18:13;10.90;94.60
39601;DHT22;25297;44.758;11.310;2022-12-07T15:20:39;10.80;94.60
39601;DHT22;25297;44.758;11.310;2022-12-07T15:23:05;10.80;94.50
39601;DHT22;25297;44.758;11.310;2022-12-07T15:25:31;10.70;94.40
39601;DHT22;25297;44.758;11.310;2022-12-07T15:27:57;10.70;94.50
39601;DHT22;25297;44.758;11.310;2022-12-07T15:30:23;10.70;94.40
39601;DHT22;25297;44.758;11.310;2022-12-07T15:32:52;10.70;94.40
39601;DHT22;25297;44.758;11.310;2022-12-07T15:35:18;10.60;94.40
39601;DHT22;25297;44.758;11.310;2022-12-07T15:37:44;10.50;94.40
39601;DHT22;25297;44.758;11.310;2022-12-07T15:40:10;10.50;94.50
39601;DHT22;25297;44.758;11.310;2022-12-07T15:42:36;10.50;94.60
39601;DHT22;25297;44.758;11.310;2022-12-07T15:45:03;10.50;94.60
39601;DHT22;25297;44.758;11.310;2022-12-07T15:47:40;10.50;94.50
39601;DHT22;25297;44.758;11.310;2022-12-07T15:50:09;10.40;94.50
39601;DHT22;25297;44.758;11.310;2022-12-07T15:52:35;10.40;94.60
39601;DHT22;25297;44.758;11.310;2022-12-07T15:55:02;10.40;94.70
39601;DHT22;25297;44.758;11.310;2022-12-07T15:57:32;10.30;94.60
39601;DHT22;25297;44.758;11.310;2022-12-07T15:59:57;10.30;94.60
39601;DHT22;25297;44.758;11.310;2022-12-07T16:02:23;10.30;94.90
39601;DHT22;25297;44.758;11.310;2022-12-07T16:04:49;10.20;94.90
39601;DHT22;25297;44.758;11.310;2022-12-07T16:07:16;10.20;94.60
39601;DHT22;25297;44.758;11.310;2022-12-07T16:09:43;10.20;94.60
39601;DHT22;25297;44.758;11.310;2022-12-07T16:12:10;10.10;94.50
39601;DHT22;25297;44.758;11.310;2022-12-07T16:14:36;10.10;94.60
39601;DHT22;25297;44.758;11.310;2022-12-07T16:17:02;10.00;94.70
39601;DHT22;25297;44.758;11.310;2022-12-07T16:19:30;10.00;94.70
39601;DHT22;25297;44.758;11.310;2022-12-07T16:21:56;10.00;94.70
39601;DHT22;25297;44.758;11.310;2022-12-07T16:24:22;10.00;94.80
39601;DHT22;25297;44.758;11.310;2022-12-07T16:26:48;9.90;94.80
39601;DHT22;25297;44.758;11.310;2022-12-07T16:29:14;9.90;94.90
39601;DHT22;25297;44.758;11.310;2022-12-07T16:31:40;9.90;94.80
39601;DHT22;25297;44.758;11.310;2022-12-07T16:34:07;9.90;94.70
39601;DHT22;25297;44.758;11.310;2022-12-07T16:36:32;9.80;94.70
39601;DHT22;25297;44.758;11.310;2022-12-07T16:38:59;9.80;94.60
39601;DHT22;25297;44.758;11.310;2022-12-07T16:41:24;9.70;94.70
39601;DHT22;25297;44.758;11.310;2022-12-07T16:43:50;9.80;94.80
39601;DHT22;25297;44.758;11.310;2022-12-07T16:46:16;9.70;95.00
39601;DHT22;25297;44.758;11.310;2022-12-07T16:48:42;9.70;95.10
39601;DHT22;25297;44.758;11.310;2022-12-07T16:51:10;9.60;95.30
39601;DHT22;25297;44.758;11.310;2022-12-07T16:53:36;9.60;95.40
39601;DHT22;25297;44.758;11.310;2022-12-07T16:56:03;9.60;95.60
39601;DHT22;25297;44.758;11.310;2022-12-07T16:58:28;9.60;95.80
39601;DHT22;25297;44.758;11.310;2022-12-07T17:00:54;9.50;95.80
39601;DHT22;25297;44.758;11.310;2022-12-07T17:03:20;9.50;96.00
39601;DHT22;25297;44.758;11.310;2022-12-07T17:05:46;9.50;96.10
39601;DHT22;25297;44.758;11.310;2022-12-07T17:08:13;9.50;96.30
39601;DHT22;25297;44.758;11.310;2022-12-07T17:10:41;9.50;96.20
39601;DHT22;25297;44.758;11.310;2022-12-07T17:13:07;9.50;96.10
39601;DHT22;25297;44.758;11.310;2022-12-07T17:16:02;9.40;96.20
39601;DHT22;25297;44.758;11.310;2022-12-07T17:18:35;9.40;96.30
39601;DHT22;25297;44.758;11.310;2022-12-07T17:21:06;9.40;96.40
39601;DHT22;25297;44.758;11.310;2022-12-07T17:23:33;9.40;96.50
39601;DHT22;25297;44.758;11.310;2022-12-07T17:26:10;9.40;96.60
39601;DHT22;25297;44.758;11.310;2022-12-07T17:28:37;9.40;96.70
39601;DHT22;25297;44.758;11.310;2022-12-07T17:31:07;9.30;96.70
39601;DHT22;25297;44.758;11.310;2022-12-07T17:33:33;9.30;96.80
39601;DHT22;25297;44.758;11.310;2022-12-07T17:36:00;9.40;96.90
39601;DHT22;25297;44.758;11.310;2022-12-07T17:38:27;9.30;96.90